sensor_id;sensor_type;location;lat;lon;timestamp;P1;durP1;ratioP1;P2;durP2;ratioP2
18399;SDS011;9326;49.468;11.008;2024-03-23T00:54:50;9.57;;;8.57;;
18399;SDS011;9326;49.468;11.008;2024-03-23T00:57:18;10.47;;;8.70;;
18399;SDS011;9326;49.468;11.008;2024-03-23T00:59:45;10.27;;;9.10;;
18399;SDS011;9326;49.468;11.008;2024-03-23T06:00:56;5.70;;;4.57;;
18399;SDS011;9326;49.468;11.008;2024-03-23T06:03:23;5.20;;;4.70;;
18399;SDS011;9326;49.468;11.008;2024-03-23T06:05:50;5.50;;;4.57;;
18399;SDS011;9326;49.468;11.008;2024-03-23T06:08:18;5.47;;;4.80;;
18399;SDS011;9326;49.468;11.008;2024-03-23T06:10:44;5.50;;;4.83;;
18399;SDS011;9326;49.468;11.008;2024-03-23T06:13:11;5.70;;;4.93;;
18399;SDS011;9326;49.468;11.008;2024-03-23T06:15:38;5.53;;;5.03;;
18399;SDS011;9326;49.468;11.008;2024-03-23T06:18:09;6.67;;;4.73;;
18399;SDS011;9326;49.468;11.008;2024-03-23T06:20:35;7.80;;;5.70;;
18399;SDS011;9326;49.468;11.008;2024-03-23T06:23:03;6.23;;;5.60;;
18399;SDS011;9326;49.468;11.008;2024-03-23T06:25:29;6.60;;;6.00;;
18399;SDS011;9326;49.468;11.008;2024-03-23T06:27:56;7.13;;;6.43;;
18399;SDS011;9326;49.468;11.008;2024-03-23T06:30:23;7.33;;;6.50;;
18399;SDS011;9326;49.468;11.008;2024-03-23T06:32:51;7.53;;;6.77;;
18399;SDS011;9326;49.468;11.008;2024-03-23T06:35:19;7.37;;;6.47;;
18399;SDS011;9326;49.468;11.008;2024-03-23T06:37:46;8.57;;;7.33;;
18399;SDS011;9326;49.468;11.008;2024-03-23T06:40:12;9.10;;;7.40;;
18399;SDS011;9326;49.468;11.008;2024-03-23T06:42:39;9.73;;;8.20;;
18399;SDS011;9326;49.468;11.008;2024-03-23T06:45:06;10.30;;;8.37;;
18399;SDS011;9326;49.468;11.008;2024-03-23T06:47:33;10.97;;;8.80;;
18399;SDS011;9326;49.468;11.008;2024-03-23T06:49:59;9.60;;;8.23;;
18399;SDS011;9326;49.468;11.008;2024-03-23T06:52:29;9.27;;;8.30;;
18399;SDS011;9326;49.468;11.008;2024-03-23T06:54:55;9.57;;;8.43;;
18399;SDS011;9326;49.468;11.008;2024-03-23T06:57:22;9.50;;;8.50;;
18399;SDS011;9326;49.468;11.008;2024-03-23T06:59:48;8.73;;;7.83;;
18399;SDS011;9326;49.468;11.008;2024-03-23T07:02:16;9.40;;;7.93;;
18399;SDS011;9326;49.468;11.008;2024-03-23T07:04:42;8.87;;;7.97;;
18399;SDS011;9326;49.468;11.008;2024-03-23T07:07:09;9.60;;;8.37;;
18399;SDS011;9326;49.468;11.008;2024-03-23T07:09:37;10.53;;;7.60;;
18399;SDS011;9326;49.468;11.008;2024-03-23T07:12:05;10.27;;;7.73;;
18399;SDS011;9326;49.468;11.008;2024-03-23T07:14:31;7.40;;;6.60;;
18399;SDS011;9326;49.468;11.008;2024-03-23T07:16:58;8.30;;;6.97;;
18399;SDS011;9326;49.468;11.008;2024-03-23T07:19:24;7.30;;;6.23;;
18399;SDS011;9326;49.468;11.008;2024-03-23T07:21:51;7.40;;;6.60;;
18399;SDS011;9326;49.468;11.008;2024-03-23T07:24:18;7.93;;;6.33;;
18399;SDS011;9326;49.468;11.008;2024-03-23T07:26:46;9.00;;;6.63;;
18399;SDS011;9326;49.468;11.008;2024-03-23T07:29:12;7.30;;;6.07;;
18399;SDS011;9326;49.468;11.008;2024-03-23T07:31:40;7.67;;;6.30;;
18399;SDS011;9326;49.468;11.008;2024-03-23T07:34:06;7.00;;;5.83;;
18399;SDS011;9326;49.468;11.008;2024-03-23T07:36:33;7.23;;;5.97;;
18399;SDS011;9326;49.468;11.008;2024-03-23T07:38:59;9.67;;;6.43;;
18399;SDS011;9326;49.468;11.008;2024-03-23T07:41:27;7.40;;;5.93;;
18399;SDS011;9326;49.468;11.008;2024-03-23T07:43:54;7.60;;;6.73;;
18399;SDS011;9326;49.468;11.008;2024-03-23T07:46:21;7.73;;;6.93;;
18399;SDS011;9326;49.468;11.008;2024-03-23T07:48:47;8.67;;;7.00;;
18399;SDS011;9326;49.468;11.008;2024-03-23T07:51:16;7.40;;;6.40;;
18399;SDS011;9326;49.468;11.008;2024-03-23T07:53:43;8.27;;;6.83;;
18399;SDS011;9326;49.468;11.008;2024-03-23T07:56:11;7.73;;;6.60;;
18399;SDS011;9326;49.468;11.008;2024-03-23T07:58:37;7.50;;;6.67;;
18399;SDS011;9326;49.468;11.008;2024-03-23T08:01:06;7.63;;;6.57;;
18399;SDS011;9326;49.468;11.008;2024-03-23T08:03:33;9.37;;;6.63;;
18399;SDS011;9326;49.468;11.008;2024-03-23T08:06:06;6.60;;;6.00;;
18399;SDS011;9326;49.468;11.008;2024-03-23T08:08:33;6.87;;;6.17;;
18399;SDS011;9326;49.468;11.008;2024-03-23T08:11:06;7.43;;;6.07;;
18399;SDS011;9326;49.468;11.008;2024-03-23T08:19:47;9.80;;;6.37;;
18399;SDS011;9326;49.468;11.008;2024-03-23T08:26:01;7.27;;;5.90;;
18399;SDS011;9326;49.468;11.008;2024-03-23T08:32:05;4.93;;;4.43;;
18399;SDS011;9326;49.468;11.008;2024-03-23T08:34:32;4.03;;;3.20;;
18399;SDS011;9326;49.468;11.008;2024-03-23T08:37:03;2.90;;;2.70;;
18399;SDS011;9326;49.468;11.008;2024-03-23T08:39:31;2.70;;;2.50;;
18399;SDS011;9326;49.468;11.008;2024-03-23T08:42:00;2.73;;;2.53;;
18399;SDS011;9326;49.468;11.008;2024-03-23T08:44:27;2.47;;;2.27;;
18399;SDS011;9326;49.468;11.008;2024-03-23T08:46:56;2.93;;;2.17;;
18399;SDS011;9326;49.468;11.008;2024-03-23T08:49:24;2.57;;;2.37;;
18399;SDS011;9326;49.468;11.008;2024-03-23T08:51:50;3.00;;;2.43;;
18399;SDS011;9326;49.468;11.008;2024-03-23T08:54:18;3.47;;;2.80;;
18399;SDS011;9326;49.468;11.008;2024-03-23T08:56:45;2.23;;;2.03;;
18399;SDS011;9326;49.468;11.008;2024-03-23T08:59:12;2.30;;;2.10;;
18399;SDS011;9326;49.468;11.008;2024-03-23T09:24:37;0.77;;;0.60;;
18399;SDS011;9326;49.468;11.008;2024-03-23T09:27:05;0.40;;;0.40;;
18399;SDS011;9326;49.468;11.008;2024-03-23T09:35:36;0.50;;;0.50;;
18399;SDS011;9326;49.468;11.008;2024-03-23T09:38:02;0.83;;;0.40;;
18399;SDS011;9326;49.468;11.008;2024-03-23T09:40:30;0.40;;;0.40;;
18399;SDS011;9326;49.468;11.008;2024-03-23T09:42:57;0.40;;;0.40;;
18399;SDS011;9326;49.468;11.008;2024-03-23T09:45:26;0.30;;;0.30;;
18399;SDS011;9326;49.468;11.008;2024-03-23T09:47:52;0.30;;;0.30;;
18399;SDS011;9326;49.468;11.008;2024-03-23T09:50:20;0.30;;;0.30;;
18399;SDS011;9326;49.468;11.008;2024-03-23T09:52:46;0.60;;;0.33;;
18399;SDS011;9326;49.468;11.008;2024-03-23T09:55:13;0.20;;;0.20;;
18399;SDS011;9326;49.468;11.008;2024-03-23T09:57:40;0.40;;;0.40;;
18399;SDS011;9326;49.468;11.008;2024-03-23T10:00:08;0.77;;;0.30;;
18399;SDS011;9326;49.468;11.008;2024-03-23T10:02:34;0.40;;;0.30;;
18399;SDS011;9326;49.468;11.008;2024-03-23T10:05:01;0.10;;;0.10;;
18399;SDS011;9326;49.468;11.008;2024-03-23T10:07:27;1.17;;;0.20;;
18399;SDS011;9326;49.468;11.008;2024-03-23T10:09:55;0.87;;;0.77;;
18399;SDS011;9326;49.468;11.008;2024-03-23T10:12:21;0.47;;;0.40;;
18399;SDS011;9326;49.468;11.008;2024-03-23T10:14:50;0.17;;;0.17;;
18399;SDS011;9326;49.468;11.008;2024-03-23T10:17:16;1.43;;;0.33;;
18399;SDS011;9326;49.468;11.008;2024-03-23T10:19:44;0.53;;;0.30;;
18399;SDS011;9326;49.468;11.008;2024-03-23T10:22:13;1.30;;;0.40;;
18399;SDS011;9326;49.468;11.008;2024-03-23T10:24:40;1.13;;;0.67;;
18399;SDS011;9326;49.468;11.008;2024-03-23T10:27:06;0.73;;;0.60;;
18399;SDS011;9326;49.468;11.008;2024-03-23T10:29:33;1.67;;;0.83;;
18399;SDS011;9326;49.468;11.008;2024-03-23T10:32:10;2.47;;;0.70;;
18399;SDS011;9326;49.468;11.008;2024-03-23T10:34:38;1.30;;;0.80;;
18399;SDS011;9326;49.468;11.008;2024-03-23T10:37:04;2.43;;;0.60;;
18399;SDS011;9326;49.468;11.008;2024-03-23T10:39:32;1.20;;;0.80;;
18399;SDS011;9326;49.468;11.008;2024-03-23T10:42:00;1.20;;;0.83;;
18399;SDS011;9326;49.468;11.008;2024-03-23T10:44:27;3.90;;;1.13;;
18399;SDS011;9326;49.468;11.008;2024-03-23T10:46:55;2.77;;;1.23;;
18399;SDS011;9326;49.468;11.008;2024-03-23T10:49:26;2.37;;;1.20;;
18399;SDS011;9326;49.468;11.008;2024-03-23T10:51:54;1.23;;;0.93;;
18399;SDS011;9326;49.468;11.008;2024-03-23T10:54:21;1.53;;;1.13;;
18399;SDS011;9326;49.468;11.008;2024-03-23T10:56:47;1.87;;;1.10;;
18399;SDS011;9326;49.468;11.008;2024-03-23T10:59:16;1.40;;;1.30;;
18399;SDS011;9326;49.468;11.008;2024-03-23T11:04:13;2.67;;;1.40;;
18399;SDS011;9326;49.468;11.008;2024-03-23T11:06:59;1.40;;;1.20;;
18399;SDS011;9326;49.468;11.008;2024-03-23T11:09:41;3.43;;;1.60;;
18399;SDS011;9326;49.468;11.008;2024-03-23T11:12:26;2.63;;;1.17;;
18399;SDS011;9326;49.468;11.008;2024-03-23T11:15:32;3.07;;;1.50;;
18399;SDS011;9326;49.468;11.008;2024-03-23T11:18:09;1.73;;;1.50;;
18399;SDS011;9326;49.468;11.008;2024-03-23T11:20:37;2.17;;;1.57;;
18399;SDS011;9326;49.468;11.008;2024-03-23T11:23:05;4.57;;;2.00;;
18399;SDS011;9326;49.468;11.008;2024-03-23T11:25:33;2.90;;;2.07;;
18399;SDS011;9326;49.468;11.008;2024-03-23T11:28:13;3.37;;;1.87;;
18399;SDS011;9326;49.468;11.008;2024-03-23T11:30:42;2.77;;;1.83;;
18399;SDS011;9326;49.468;11.008;2024-03-23T11:33:17;3.37;;;2.00;;
18399;SDS011;9326;49.468;11.008;2024-03-23T11:35:45;2.63;;;1.60;;
18399;SDS011;9326;49.468;11.008;2024-03-23T11:38:16;4.07;;;2.00;;
18399;SDS011;9326;49.468;11.008;2024-03-23T11:40:48;3.43;;;1.90;;
18399;SDS011;9326;49.468;11.008;2024-03-23T11:43:16;3.40;;;1.97;;
18399;SDS011;9326;49.468;11.008;2024-03-23T11:45:47;2.80;;;2.20;;
18399;SDS011;9326;49.468;11.008;2024-03-23T11:48:18;4.83;;;2.03;;
18399;SDS011;9326;49.468;11.008;2024-03-23T11:50:56;3.13;;;2.00;;
18399;SDS011;9326;49.468;11.008;2024-03-23T12:15:10;3.87;;;1.40;;
18399;SDS011;9326;49.468;11.008;2024-03-23T12:17:38;3.23;;;1.80;;
18399;SDS011;9326;49.468;11.008;2024-03-23T12:20:04;3.00;;;1.60;;
18399;SDS011;9326;49.468;11.008;2024-03-23T12:22:32;3.90;;;1.83;;
18399;SDS011;9326;49.468;11.008;2024-03-23T12:25:00;3.30;;;2.10;;
18399;SDS011;9326;49.468;11.008;2024-03-23T12:27:27;4.43;;;1.97;;
18399;SDS011;9326;49.468;11.008;2024-03-23T12:29:53;3.17;;;1.77;;
18399;SDS011;9326;49.468;11.008;2024-03-23T12:32:22;4.23;;;2.00;;
18399;SDS011;9326;49.468;11.008;2024-03-23T12:34:49;5.80;;;2.03;;
18399;SDS011;9326;49.468;11.008;2024-03-23T12:37:16;6.53;;;2.00;;
18399;SDS011;9326;49.468;11.008;2024-03-23T12:39:43;5.43;;;2.03;;
18399;SDS011;9326;49.468;11.008;2024-03-23T12:42:10;4.10;;;1.90;;
18399;SDS011;9326;49.468;11.008;2024-03-23T12:44:36;4.90;;;2.47;;
18399;SDS011;9326;49.468;11.008;2024-03-23T12:47:04;3.90;;;1.80;;
18399;SDS011;9326;49.468;11.008;2024-03-23T12:49:31;4.63;;;2.10;;
18399;SDS011;9326;49.468;11.008;2024-03-23T12:52:00;4.17;;;2.03;;
18399;SDS011;9326;49.468;11.008;2024-03-23T12:54:26;3.17;;;1.80;;
18399;SDS011;9326;49.468;11.008;2024-03-23T12:56:53;4.57;;;2.50;;
18399;SDS011;9326;49.468;11.008;2024-03-23T12:59:19;5.40;;;2.40;;
18399;SDS011;9326;49.468;11.008;2024-03-23T13:01:47;4.00;;;1.97;;
18399;SDS011;9326;49.468;11.008;2024-03-23T13:04:13;5.30;;;3.57;;
18399;SDS011;9326;49.468;11.008;2024-03-23T13:06:43;3.83;;;1.97;;
18399;SDS011;9326;49.468;11.008;2024-03-23T13:09:09;6.03;;;2.17;;
18399;SDS011;9326;49.468;11.008;2024-03-23T13:11:36;4.73;;;2.40;;
18399;SDS011;9326;49.468;11.008;2024-03-23T13:14:02;5.23;;;2.17;;
18399;SDS011;9326;49.468;11.008;2024-03-23T13:16:30;3.93;;;2.00;;
18399;SDS011;9326;49.468;11.008;2024-03-23T13:18:57;3.83;;;2.30;;
18399;SDS011;9326;49.468;11.008;2024-03-23T13:21:26;5.43;;;2.67;;
18399;SDS011;9326;49.468;11.008;2024-03-23T13:23:53;4.50;;;2.40;;
18399;SDS011;9326;49.468;11.008;2024-03-23T13:26:20;3.73;;;2.33;;
18399;SDS011;9326;49.468;11.008;2024-03-23T13:28:46;4.23;;;2.20;;
18399;SDS011;9326;49.468;11.008;2024-03-23T13:31:13;5.93;;;2.10;;
18399;SDS011;9326;49.468;11.008;2024-03-23T13:33:39;9.10;;;2.23;;
18399;SDS011;9326;49.468;11.008;2024-03-23T13:36:09;4.67;;;1.80;;
18399;SDS011;9326;49.468;11.008;2024-03-23T13:38:35;3.00;;;1.70;;
18399;SDS011;9326;49.468;11.008;2024-03-23T13:41:03;6.00;;;2.00;;
18399;SDS011;9326;49.468;11.008;2024-03-23T13:43:31;3.90;;;1.70;;
18399;SDS011;9326;49.468;11.008;2024-03-23T13:45:59;3.20;;;1.73;;
18399;SDS011;9326;49.468;11.008;2024-03-23T13:48:25;4.23;;;2.20;;
18399;SDS011;9326;49.468;11.008;2024-03-23T13:50:57;4.57;;;2.03;;
18399;SDS011;9326;49.468;11.008;2024-03-23T13:53:23;6.63;;;2.20;;
18399;SDS011;9326;49.468;11.008;2024-03-23T13:55:50;4.53;;;2.30;;
18399;SDS011;9326;49.468;11.008;2024-03-23T13:58:18;3.23;;;1.97;;
18399;SDS011;9326;49.468;11.008;2024-03-23T14:00:45;3.77;;;1.77;;
18399;SDS011;9326;49.468;11.008;2024-03-23T14:03:13;4.47;;;2.00;;
18399;SDS011;9326;49.468;11.008;2024-03-23T14:05:40;5.13;;;2.17;;
18399;SDS011;9326;49.468;11.008;2024-03-23T14:08:07;5.13;;;2.00;;
18399;SDS011;9326;49.468;11.008;2024-03-23T14:10:39;5.23;;;2.03;;
18399;SDS011;9326;49.468;11.008;2024-03-23T14:13:06;5.70;;;2.10;;
18399;SDS011;9326;49.468;11.008;2024-03-23T14:15:34;4.93;;;2.03;;
18399;SDS011;9326;49.468;11.008;2024-03-23T14:18:01;4.27;;;2.00;;
18399;SDS011;9326;49.468;11.008;2024-03-23T14:20:28;5.43;;;2.00;;
18399;SDS011;9326;49.468;11.008;2024-03-23T14:22:55;5.50;;;2.43;;
18399;SDS011;9326;49.468;11.008;2024-03-23T14:25:22;4.40;;;1.87;;
18399;SDS011;9326;49.468;11.008;2024-03-23T14:27:52;3.40;;;1.70;;
18399;SDS011;9326;49.468;11.008;2024-03-23T14:30:19;4.53;;;1.57;;
18399;SDS011;9326;49.468;11.008;2024-03-23T14:32:46;3.03;;;1.80;;
18399;SDS011;9326;49.468;11.008;2024-03-23T14:35:14;3.00;;;1.60;;
18399;SDS011;9326;49.468;11.008;2024-03-23T14:37:40;5.40;;;1.83;;
18399;SDS011;9326;49.468;11.008;2024-03-23T14:40:08;4.13;;;1.70;;
18399;SDS011;9326;49.468;11.008;2024-03-23T14:42:36;3.37;;;1.60;;
18399;SDS011;9326;49.468;11.008;2024-03-23T14:45:04;4.30;;;1.80;;
18399;SDS011;9326;49.468;11.008;2024-03-23T14:47:30;5.63;;;2.00;;
18399;SDS011;9326;49.468;11.008;2024-03-23T14:49:59;5.30;;;1.90;;
18399;SDS011;9326;49.468;11.008;2024-03-23T14:52:26;5.10;;;2.07;;
18399;SDS011;9326;49.468;11.008;2024-03-23T14:54:54;3.40;;;1.97;;
18399;SDS011;9326;49.468;11.008;2024-03-23T14:57:21;4.47;;;2.10;;
18399;SDS011;9326;49.468;11.008;2024-03-23T14:59:49;6.27;;;2.33;;
18399;SDS011;9326;49.468;11.008;2024-03-23T15:02:15;6.07;;;2.70;;
18399;SDS011;9326;49.468;11.008;2024-03-23T15:04:42;9.43;;;4.97;;
18399;SDS011;9326;49.468;11.008;2024-03-23T15:07:09;7.77;;;4.77;;
18399;SDS011;9326;49.468;11.008;2024-03-23T15:09:39;8.47;;;3.00;;
18399;SDS011;9326;49.468;11.008;2024-03-23T15:12:05;6.07;;;3.03;;
18399;SDS011;9326;49.468;11.008;2024-03-23T15:14:33;4.83;;;2.53;;
18399;SDS011;9326;49.468;11.008;2024-03-23T15:17:11;4.93;;;2.43;;
18399;SDS011;9326;49.468;11.008;2024-03-23T15:19:42;3.60;;;2.53;;
18399;SDS011;9326;49.468;11.008;2024-03-23T15:25:10;5.07;;;3.27;;
18399;SDS011;9326;49.468;11.008;2024-03-23T15:30:48;4.80;;;3.03;;
18399;SDS011;9326;49.468;11.008;2024-03-23T15:35:36;3.40;;;2.80;;
18399;SDS011;9326;49.468;11.008;2024-03-23T15:36:42;5.63;;;2.73;;
18399;SDS011;9326;49.468;11.008;2024-03-23T15:39:19;3.23;;;2.80;;
18399;SDS011;9326;49.468;11.008;2024-03-23T15:41:52;5.57;;;2.87;;
18399;SDS011;9326;49.468;11.008;2024-03-23T15:45:47;5.20;;;2.87;;
18399;SDS011;9326;49.468;11.008;2024-03-23T15:47:54;6.50;;;4.43;;
18399;SDS011;9326;49.468;11.008;2024-03-23T15:53:11;4.90;;;3.23;;
18399;SDS011;9326;49.468;11.008;2024-03-23T15:55:55;5.07;;;2.97;;
18399;SDS011;9326;49.468;11.008;2024-03-23T15:58:27;5.60;;;3.10;;
18399;SDS011;9326;49.468;11.008;2024-03-23T16:00:54;6.33;;;3.80;;
18399;SDS011;9326;49.468;11.008;2024-03-23T16:03:26;4.30;;;2.80;;
18399;SDS011;9326;49.468;11.008;2024-03-23T16:05:55;4.93;;;3.00;;
18399;SDS011;9326;49.468;11.008;2024-03-23T16:08:25;5.77;;;3.77;;
18399;SDS011;9326;49.468;11.008;2024-03-23T16:10:53;7.17;;;2.93;;
18399;SDS011;9326;49.468;11.008;2024-03-23T16:13:23;7.77;;;5.30;;
18399;SDS011;9326;49.468;11.008;2024-03-23T16:15:59;5.97;;;2.97;;
18399;SDS011;9326;49.468;11.008;2024-03-23T16:18:37;5.63;;;2.80;;
18399;SDS011;9326;49.468;11.008;2024-03-23T16:21:04;3.47;;;2.00;;
18399;SDS011;9326;49.468;11.008;2024-03-23T16:23:33;4.80;;;2.17;;
18399;SDS011;9326;49.468;11.008;2024-03-23T16:26:02;4.10;;;2.10;;
18399;SDS011;9326;49.468;11.008;2024-03-23T16:28:31;4.87;;;2.50;;
18399;SDS011;9326;49.468;11.008;2024-03-23T16:31:09;4.27;;;2.17;;
18399;SDS011;9326;49.468;11.008;2024-03-23T16:33:37;4.83;;;2.20;;
18399;SDS011;9326;49.468;11.008;2024-03-23T16:36:05;5.13;;;2.40;;
18399;SDS011;9326;49.468;11.008;2024-03-23T16:38:32;4.73;;;2.50;;
18399;SDS011;9326;49.468;11.008;2024-03-23T16:41:00;4.77;;;2.50;;
18399;SDS011;9326;49.468;11.008;2024-03-23T16:43:26;4.40;;;2.30;;
18399;SDS011;9326;49.468;11.008;2024-03-23T16:46:01;3.03;;;2.07;;
18399;SDS011;9326;49.468;11.008;2024-03-23T16:48:30;4.77;;;1.87;;
18399;SDS011;9326;49.468;11.008;2024-03-23T16:50:58;3.10;;;1.70;;
18399;SDS011;9326;49.468;11.008;2024-03-23T16:53:24;2.17;;;1.70;;
18399;SDS011;9326;49.468;11.008;2024-03-23T16:55:55;3.60;;;2.10;;
18399;SDS011;9326;49.468;11.008;2024-03-23T16:58:22;7.80;;;5.00;;
18399;SDS011;9326;49.468;11.008;2024-03-23T17:00:50;4.33;;;2.50;;
18399;SDS011;9326;49.468;11.008;2024-03-23T17:03:18;3.40;;;1.50;;
18399;SDS011;9326;49.468;11.008;2024-03-23T17:05:47;2.90;;;1.70;;
18399;SDS011;9326;49.468;11.008;2024-03-23T17:08:13;3.97;;;1.40;;
18399;SDS011;9326;49.468;11.008;2024-03-23T17:10:40;2.10;;;1.20;;
18399;SDS011;9326;49.468;11.008;2024-03-23T17:13:06;2.93;;;0.97;;
18399;SDS011;9326;49.468;11.008;2024-03-23T17:15:34;3.13;;;1.17;;
18399;SDS011;9326;49.468;11.008;2024-03-23T17:18:19;3.53;;;1.30;;
18399;SDS011;9326;49.468;11.008;2024-03-23T17:26:15;5.17;;;2.50;;
18399;SDS011;9326;49.468;11.008;2024-03-23T17:28:44;2.70;;;1.50;;
18399;SDS011;9326;49.468;11.008;2024-03-23T17:31:14;2.70;;;0.97;;
18399;SDS011;9326;49.468;11.008;2024-03-23T17:33:42;3.07;;;1.27;;
18399;SDS011;9326;49.468;11.008;2024-03-23T17:36:10;2.80;;;1.40;;
18399;SDS011;9326;49.468;11.008;2024-03-23T17:39:01;1.77;;;1.30;;
18399;SDS011;9326;49.468;11.008;2024-03-23T17:41:37;4.90;;;1.80;;
18399;SDS011;9326;49.468;11.008;2024-03-23T17:44:08;1.63;;;0.90;;
18399;SDS011;9326;49.468;11.008;2024-03-23T17:46:50;1.77;;;0.90;;
18399;SDS011;9326;49.468;11.008;2024-03-23T17:49:30;2.30;;;1.20;;
18399;SDS011;9326;49.468;11.008;2024-03-23T17:52:16;1.77;;;0.90;;
18399;SDS011;9326;49.468;11.008;2024-03-23T18:07:08;3.43;;;1.20;;
18399;SDS011;9326;49.468;11.008;2024-03-23T18:18:18;3.13;;;1.10;;
18399;SDS011;9326;49.468;11.008;2024-03-23T18:51:18;2.57;;;1.80;;
18399;SDS011;9326;49.468;11.008;2024-03-23T18:57:00;5.90;;;3.10;;
18399;SDS011;9326;49.468;11.008;2024-03-23T18:59:41;2.77;;;1.80;;
18399;SDS011;9326;49.468;11.008;2024-03-23T19:11:30;1.27;;;1.00;;
18399;SDS011;9326;49.468;11.008;2024-03-23T19:15:45;2.10;;;1.40;;
18399;SDS011;9326;49.468;11.008;2024-03-23T20:06:35;6.00;;;3.80;;
18399;SDS011;9326;49.468;11.008;2024-03-23T20:27:59;3.47;;;1.43;;
18399;SDS011;9326;49.468;11.008;2024-03-23T23:19:36;1.77;;;1.60;;
